sensor_id;sensor_type;location;lat;lon;timestamp;P1;durP1;ratioP1;P2;durP2;ratioP2
50355;SDS011;36264;51.296;-0.602;2022-09-02T00:00:20;4.00;;;3.00;;
50355;SDS011;36264;51.296;-0.602;2022-09-02T00:02:47;7.15;;;3.60;;
50355;SDS011;36264;51.296;-0.602;2022-09-02T00:05:14;4.15;;;2.60;;
50355;SDS011;36264;51.296;-0.602;2022-09-02T00:07:39;3.88;;;2.78;;
50355;SDS011;36264;51.296;-0.602;2022-09-02T00:10:04;4.68;;;3.42;;
50355;SDS011;36264;51.296;-0.602;2022-09-02T00:12:30;5.22;;;3.08;;
50355;SDS011;36264;51.296;-0.602;2022-09-02T00:14:55;6.82;;;4.53;;
50355;SDS011;36264;51.296;-0.602;2022-09-02T00:17:21;4.35;;;3.03;;
50355;SDS011;36264;51.296;-0.602;2022-09-02T00:19:46;8.45;;;4.43;;
50355;SDS011;36264;51.296;-0.602;2022-09-02T00:22:12;7.53;;;4.78;;
50355;SDS011;36264;51.296;-0.602;2022-09-02T00:24:37;5.88;;;3.65;;
50355;SDS011;36264;51.296;-0.602;2022-09-02T00:27:03;7.10;;;5.32;;
50355;SDS011;36264;51.296;-0.602;2022-09-02T00:29:28;11.32;;;4.63;;
50355;SDS011;36264;51.296;-0.602;2022-09-02T00:31:53;6.03;;;3.80;;
50355;SDS011;36264;51.296;-0.602;2022-09-02T00:34:19;6.50;;;3.75;;
50355;SDS011;36264;51.296;-0.602;2022-09-02T00:36:45;7.22;;;3.92;;
50355;SDS011;36264;51.296;-0.602;2022-09-02T00:39:10;8.20;;;4.60;;
50355;SDS011;36264;51.296;-0.602;2022-09-02T00:41:38;10.30;;;4.78;;
50355;SDS011;36264;51.296;-0.602;2022-09-02T00:44:06;9.48;;;4.55;;
50355;SDS011;36264;51.296;-0.602;2022-09-02T00:46:33;7.20;;;4.60;;
50355;SDS011;36264;51.296;-0.602;2022-09-02T00:51:25;7.07;;;3.47;;
50355;SDS011;36264;51.296;-0.602;2022-09-02T00:53:55;9.07;;;4.50;;
50355;SDS011;36264;51.296;-0.602;2022-09-02T00:56:23;6.45;;;3.80;;
50355;SDS011;36264;51.296;-0.602;2022-09-02T00:58:52;6.20;;;3.63;;
50355;SDS011;36264;51.296;-0.602;2022-09-02T01:01:18;6.70;;;3.85;;
50355;SDS011;36264;51.296;-0.602;2022-09-02T01:03:46;5.18;;;4.00;;
50355;SDS011;36264;51.296;-0.602;2022-09-02T01:06:12;6.25;;;4.30;;
50355;SDS011;36264;51.296;-0.602;2022-09-02T01:08:39;7.43;;;3.85;;
50355;SDS011;36264;51.296;-0.602;2022-09-02T01:11:15;6.30;;;2.83;;
50355;SDS011;36264;51.296;-0.602;2022-09-02T01:13:42;6.97;;;4.28;;
50355;SDS011;36264;51.296;-0.602;2022-09-02T01:16:25;7.38;;;3.97;;
50355;SDS011;36264;51.296;-0.602;2022-09-02T01:18:55;5.85;;;3.42;;
50355;SDS011;36264;51.296;-0.602;2022-09-02T01:21:24;5.38;;;3.55;;
50355;SDS011;36264;51.296;-0.602;2022-09-02T01:23:50;4.25;;;2.53;;
50355;SDS011;36264;51.296;-0.602;2022-09-02T01:26:18;6.95;;;3.90;;
50355;SDS011;36264;51.296;-0.602;2022-09-02T01:28:43;6.30;;;3.30;;
50355;SDS011;36264;51.296;-0.602;2022-09-02T01:31:09;8.55;;;3.47;;
50355;SDS011;36264;51.296;-0.602;2022-09-02T01:33:34;5.47;;;3.10;;
50355;SDS011;36264;51.296;-0.602;2022-09-02T01:36:00;5.05;;;2.85;;
50355;SDS011;36264;51.296;-0.602;2022-09-02T01:38:28;6.78;;;3.10;;
50355;SDS011;36264;51.296;-0.602;2022-09-02T01:40:54;8.35;;;3.55;;
50355;SDS011;36264;51.296;-0.602;2022-09-02T01:43:22;6.15;;;3.05;;
50355;SDS011;36264;51.296;-0.602;2022-09-02T01:45:50;7.32;;;3.20;;
50355;SDS011;36264;51.296;-0.602;2022-09-02T01:48:17;5.38;;;2.97;;
50355;SDS011;36264;51.296;-0.602;2022-09-02T01:50:46;6.32;;;3.30;;
50355;SDS011;36264;51.296;-0.602;2022-09-02T01:53:14;4.35;;;2.55;;
50355;SDS011;36264;51.296;-0.602;2022-09-02T01:55:40;4.93;;;2.25;;
50355;SDS011;36264;51.296;-0.602;2022-09-02T01:58:05;5.85;;;3.08;;
50355;SDS011;36264;51.296;-0.602;2022-09-02T02:00:31;6.38;;;3.67;;
50355;SDS011;36264;51.296;-0.602;2022-09-02T02:02:56;8.25;;;3.08;;
50355;SDS011;36264;51.296;-0.602;2022-09-02T02:05:22;4.38;;;2.78;;
50355;SDS011;36264;51.296;-0.602;2022-09-02T02:07:47;3.55;;;2.35;;
50355;SDS011;36264;51.296;-0.602;2022-09-02T02:10:14;6.38;;;3.28;;
50355;SDS011;36264;51.296;-0.602;2022-09-02T02:12:40;6.63;;;3.50;;
50355;SDS011;36264;51.296;-0.602;2022-09-02T02:15:07;5.72;;;3.35;;
50355;SDS011;36264;51.296;-0.602;2022-09-02T02:17:35;4.78;;;3.08;;
50355;SDS011;36264;51.296;-0.602;2022-09-02T02:20:02;4.30;;;2.88;;
50355;SDS011;36264;51.296;-0.602;2022-09-02T02:22:28;7.03;;;3.90;;
50355;SDS011;36264;51.296;-0.602;2022-09-02T02:24:55;7.30;;;3.33;;
50355;SDS011;36264;51.296;-0.602;2022-09-02T02:27:21;5.72;;;4.07;;
50355;SDS011;36264;51.296;-0.602;2022-09-02T02:29:46;5.90;;;3.17;;
50355;SDS011;36264;51.296;-0.602;2022-09-02T02:32:12;5.45;;;3.53;;
50355;SDS011;36264;51.296;-0.602;2022-09-02T02:34:38;4.65;;;3.00;;
50355;SDS011;36264;51.296;-0.602;2022-09-02T02:37:04;6.18;;;3.67;;
50355;SDS011;36264;51.296;-0.602;2022-09-02T02:39:30;6.05;;;3.78;;
50355;SDS011;36264;51.296;-0.602;2022-09-02T02:41:55;5.95;;;3.35;;
50355;SDS011;36264;51.296;-0.602;2022-09-02T02:44:20;5.63;;;4.00;;
50355;SDS011;36264;51.296;-0.602;2022-09-02T02:46:46;5.00;;;3.60;;
50355;SDS011;36264;51.296;-0.602;2022-09-02T02:49:11;5.05;;;3.90;;
50355;SDS011;36264;51.296;-0.602;2022-09-02T02:51:37;8.98;;;5.00;;
50355;SDS011;36264;51.296;-0.602;2022-09-02T02:54:02;6.95;;;3.78;;
50355;SDS011;36264;51.296;-0.602;2022-09-02T02:56:29;9.27;;;4.38;;
50355;SDS011;36264;51.296;-0.602;2022-09-02T02:58:56;7.70;;;4.70;;
50355;SDS011;36264;51.296;-0.602;2022-09-02T03:01:23;8.77;;;4.07;;
50355;SDS011;36264;51.296;-0.602;2022-09-02T03:03:49;3.72;;;2.58;;
50355;SDS011;36264;51.296;-0.602;2022-09-02T03:06:16;6.35;;;3.50;;
50355;SDS011;36264;51.296;-0.602;2022-09-02T03:08:41;5.10;;;2.83;;
50355;SDS011;36264;51.296;-0.602;2022-09-02T03:11:06;4.20;;;2.80;;
50355;SDS011;36264;51.296;-0.602;2022-09-02T03:13:32;7.30;;;2.50;;
50355;SDS011;36264;51.296;-0.602;2022-09-02T03:15:58;6.07;;;3.28;;
50355;SDS011;36264;51.296;-0.602;2022-09-02T03:18:24;3.22;;;2.17;;
50355;SDS011;36264;51.296;-0.602;2022-09-02T03:20:49;4.97;;;2.85;;
50355;SDS011;36264;51.296;-0.602;2022-09-02T03:23:15;3.67;;;2.25;;
50355;SDS011;36264;51.296;-0.602;2022-09-02T03:25:43;2.92;;;2.00;;
50355;SDS011;36264;51.296;-0.602;2022-09-02T03:28:09;4.82;;;2.65;;
50355;SDS011;36264;51.296;-0.602;2022-09-02T03:30:35;4.53;;;2.67;;
50355;SDS011;36264;51.296;-0.602;2022-09-02T03:33:01;4.85;;;2.72;;
50355;SDS011;36264;51.296;-0.602;2022-09-02T03:35:29;3.65;;;1.90;;
50355;SDS011;36264;51.296;-0.602;2022-09-02T03:37:57;6.28;;;3.50;;
50355;SDS011;36264;51.296;-0.602;2022-09-02T03:40:24;5.05;;;2.40;;
50355;SDS011;36264;51.296;-0.602;2022-09-02T03:42:51;4.07;;;2.60;;
50355;SDS011;36264;51.296;-0.602;2022-09-02T03:45:17;8.27;;;3.83;;
50355;SDS011;36264;51.296;-0.602;2022-09-02T03:47:44;5.25;;;3.15;;
50355;SDS011;36264;51.296;-0.602;2022-09-02T03:50:27;5.72;;;3.45;;
50355;SDS011;36264;51.296;-0.602;2022-09-02T03:52:55;4.30;;;2.58;;
50355;SDS011;36264;51.296;-0.602;2022-09-02T03:55:23;4.60;;;2.42;;
50355;SDS011;36264;51.296;-0.602;2022-09-02T03:57:48;6.22;;;2.42;;
50355;SDS011;36264;51.296;-0.602;2022-09-02T04:00:15;6.63;;;3.17;;
50355;SDS011;36264;51.296;-0.602;2022-09-02T04:02:43;5.90;;;3.58;;
50355;SDS011;36264;51.296;-0.602;2022-09-02T04:05:09;5.97;;;2.80;;
50355;SDS011;36264;51.296;-0.602;2022-09-02T04:07:36;3.80;;;2.38;;
50355;SDS011;36264;51.296;-0.602;2022-09-02T04:10:02;6.10;;;3.40;;
50355;SDS011;36264;51.296;-0.602;2022-09-02T04:12:28;4.90;;;2.55;;
50355;SDS011;36264;51.296;-0.602;2022-09-02T04:14:53;5.40;;;3.13;;
50355;SDS011;36264;51.296;-0.602;2022-09-02T04:17:19;4.57;;;2.45;;
50355;SDS011;36264;51.296;-0.602;2022-09-02T04:19:44;5.15;;;2.58;;
50355;SDS011;36264;51.296;-0.602;2022-09-02T04:22:09;7.75;;;3.65;;
50355;SDS011;36264;51.296;-0.602;2022-09-02T04:24:36;6.03;;;3.00;;
50355;SDS011;36264;51.296;-0.602;2022-09-02T04:27:02;6.13;;;3.35;;
50355;SDS011;36264;51.296;-0.602;2022-09-02T04:29:28;3.63;;;2.45;;
50355;SDS011;36264;51.296;-0.602;2022-09-02T04:31:55;3.13;;;2.22;;
50355;SDS011;36264;51.296;-0.602;2022-09-02T04:34:20;3.33;;;2.40;;
50355;SDS011;36264;51.296;-0.602;2022-09-02T04:36:46;6.03;;;3.72;;
50355;SDS011;36264;51.296;-0.602;2022-09-02T04:39:11;7.10;;;3.08;;
50355;SDS011;36264;51.296;-0.602;2022-09-02T04:41:37;4.65;;;2.60;;
50355;SDS011;36264;51.296;-0.602;2022-09-02T04:44:03;5.78;;;3.10;;
50355;SDS011;36264;51.296;-0.602;2022-09-02T04:46:29;3.03;;;2.10;;
50355;SDS011;36264;51.296;-0.602;2022-09-02T04:48:55;7.82;;;2.92;;
50355;SDS011;36264;51.296;-0.602;2022-09-02T04:51:22;4.82;;;2.38;;
50355;SDS011;36264;51.296;-0.602;2022-09-02T04:53:49;5.30;;;2.40;;
50355;SDS011;36264;51.296;-0.602;2022-09-02T04:56:20;3.75;;;2.30;;
50355;SDS011;36264;51.296;-0.602;2022-09-02T04:58:51;4.90;;;2.70;;
50355;SDS011;36264;51.296;-0.602;2022-09-02T05:01:21;4.22;;;2.72;;
50355;SDS011;36264;51.296;-0.602;2022-09-02T05:03:49;6.38;;;2.80;;
50355;SDS011;36264;51.296;-0.602;2022-09-02T05:06:17;3.80;;;2.30;;
50355;SDS011;36264;51.296;-0.602;2022-09-02T05:08:44;5.00;;;2.65;;
50355;SDS011;36264;51.296;-0.602;2022-09-02T05:11:14;7.28;;;2.53;;
50355;SDS011;36264;51.296;-0.602;2022-09-02T05:13:42;4.95;;;2.17;;
50355;SDS011;36264;51.296;-0.602;2022-09-02T05:16:08;5.47;;;2.47;;
50355;SDS011;36264;51.296;-0.602;2022-09-02T05:18:34;5.18;;;2.40;;
50355;SDS011;36264;51.296;-0.602;2022-09-02T05:21:02;7.60;;;2.67;;
50355;SDS011;36264;51.296;-0.602;2022-09-02T05:23:29;3.03;;;2.10;;
50355;SDS011;36264;51.296;-0.602;2022-09-02T05:25:54;6.43;;;2.70;;
50355;SDS011;36264;51.296;-0.602;2022-09-02T05:28:19;4.03;;;2.17;;
50355;SDS011;36264;51.296;-0.602;2022-09-02T05:30:45;3.95;;;2.42;;
50355;SDS011;36264;51.296;-0.602;2022-09-02T05:33:10;4.60;;;2.58;;
50355;SDS011;36264;51.296;-0.602;2022-09-02T05:35:39;3.08;;;1.92;;
50355;SDS011;36264;51.296;-0.602;2022-09-02T05:38:06;4.25;;;2.10;;
50355;SDS011;36264;51.296;-0.602;2022-09-02T05:40:32;4.57;;;2.10;;
50355;SDS011;36264;51.296;-0.602;2022-09-02T05:42:58;6.13;;;2.85;;
50355;SDS011;36264;51.296;-0.602;2022-09-02T05:45:23;4.45;;;2.28;;
50355;SDS011;36264;51.296;-0.602;2022-09-02T05:47:49;4.72;;;2.30;;
50355;SDS011;36264;51.296;-0.602;2022-09-02T05:50:15;9.07;;;3.15;;
50355;SDS011;36264;51.296;-0.602;2022-09-02T05:52:41;4.18;;;1.88;;
50355;SDS011;36264;51.296;-0.602;2022-09-02T05:55:07;3.17;;;2.00;;
50355;SDS011;36264;51.296;-0.602;2022-09-02T05:57:33;3.45;;;1.85;;
50355;SDS011;36264;51.296;-0.602;2022-09-02T05:59:58;5.63;;;2.28;;
50355;SDS011;36264;51.296;-0.602;2022-09-02T06:02:24;5.85;;;2.28;;
50355;SDS011;36264;51.296;-0.602;2022-09-02T06:04:50;3.75;;;2.00;;
50355;SDS011;36264;51.296;-0.602;2022-09-02T06:07:18;9.15;;;2.58;;
50355;SDS011;36264;51.296;-0.602;2022-09-02T06:09:46;4.90;;;2.58;;
50355;SDS011;36264;51.296;-0.602;2022-09-02T06:12:13;6.10;;;2.50;;
50355;SDS011;36264;51.296;-0.602;2022-09-02T06:14:40;7.07;;;2.45;;
50355;SDS011;36264;51.296;-0.602;2022-09-02T06:17:06;6.10;;;2.28;;
50355;SDS011;36264;51.296;-0.602;2022-09-02T06:19:32;3.33;;;1.60;;
50355;SDS011;36264;51.296;-0.602;2022-09-02T06:21:59;6.63;;;2.53;;
50355;SDS011;36264;51.296;-0.602;2022-09-02T06:24:26;5.03;;;2.05;;
50355;SDS011;36264;51.296;-0.602;2022-09-02T06:26:53;4.53;;;2.05;;
50355;SDS011;36264;51.296;-0.602;2022-09-02T06:29:19;4.03;;;2.25;;
50355;SDS011;36264;51.296;-0.602;2022-09-02T06:31:46;4.80;;;2.15;;
50355;SDS011;36264;51.296;-0.602;2022-09-02T06:34:13;4.50;;;2.42;;
50355;SDS011;36264;51.296;-0.602;2022-09-02T06:36:40;3.03;;;1.98;;
50355;SDS011;36264;51.296;-0.602;2022-09-02T06:39:08;3.30;;;1.95;;
50355;SDS011;36264;51.296;-0.602;2022-09-02T06:41:36;9.82;;;2.55;;
50355;SDS011;36264;51.296;-0.602;2022-09-02T06:44:03;4.72;;;2.30;;
50355;SDS011;36264;51.296;-0.602;2022-09-02T06:46:30;6.93;;;2.50;;
50355;SDS011;36264;51.296;-0.602;2022-09-02T06:53:56;6.13;;;2.38;;
50355;SDS011;36264;51.296;-0.602;2022-09-02T06:56:23;6.43;;;2.40;;
50355;SDS011;36264;51.296;-0.602;2022-09-02T06:58:48;5.30;;;2.33;;
50355;SDS011;36264;51.296;-0.602;2022-09-02T07:01:21;5.43;;;2.30;;
50355;SDS011;36264;51.296;-0.602;2022-09-02T07:03:49;8.38;;;2.75;;
50355;SDS011;36264;51.296;-0.602;2022-09-02T07:06:37;4.72;;;2.38;;
50355;SDS011;36264;51.296;-0.602;2022-09-02T07:09:04;13.35;;;6.22;;
50355;SDS011;36264;51.296;-0.602;2022-09-02T07:11:31;9.25;;;5.47;;
50355;SDS011;36264;51.296;-0.602;2022-09-02T07:13:57;8.57;;;3.35;;
50355;SDS011;36264;51.296;-0.602;2022-09-02T07:16:26;5.47;;;2.60;;
50355;SDS011;36264;51.296;-0.602;2022-09-02T07:18:56;5.63;;;2.33;;
50355;SDS011;36264;51.296;-0.602;2022-09-02T07:21:22;4.75;;;2.35;;
50355;SDS011;36264;51.296;-0.602;2022-09-02T07:23:47;6.47;;;2.30;;
50355;SDS011;36264;51.296;-0.602;2022-09-02T07:26:14;3.15;;;1.80;;
50355;SDS011;36264;51.296;-0.602;2022-09-02T07:28:41;11.73;;;5.20;;
50355;SDS011;36264;51.296;-0.602;2022-09-02T07:31:10;11.52;;;5.40;;
50355;SDS011;36264;51.296;-0.602;2022-09-02T07:33:37;7.38;;;3.60;;
50355;SDS011;36264;51.296;-0.602;2022-09-02T07:36:03;5.47;;;3.40;;
50355;SDS011;36264;51.296;-0.602;2022-09-02T07:38:30;6.20;;;2.90;;
50355;SDS011;36264;51.296;-0.602;2022-09-02T07:40:56;6.07;;;3.45;;
50355;SDS011;36264;51.296;-0.602;2022-09-02T07:43:21;8.05;;;4.40;;
50355;SDS011;36264;51.296;-0.602;2022-09-02T07:45:47;7.03;;;3.35;;
50355;SDS011;36264;51.296;-0.602;2022-09-02T07:48:13;9.73;;;3.78;;
50355;SDS011;36264;51.296;-0.602;2022-09-02T07:50:39;7.10;;;3.15;;
50355;SDS011;36264;51.296;-0.602;2022-09-02T07:53:06;7.85;;;3.85;;
50355;SDS011;36264;51.296;-0.602;2022-09-02T07:55:32;8.43;;;4.68;;
50355;SDS011;36264;51.296;-0.602;2022-09-02T07:58:00;8.15;;;5.47;;
50355;SDS011;36264;51.296;-0.602;2022-09-02T08:00:27;7.25;;;3.60;;
50355;SDS011;36264;51.296;-0.602;2022-09-02T08:02:53;7.50;;;4.57;;
50355;SDS011;36264;51.296;-0.602;2022-09-02T08:05:19;10.93;;;5.47;;
50355;SDS011;36264;51.296;-0.602;2022-09-02T08:07:44;9.65;;;5.45;;
50355;SDS011;36264;51.296;-0.602;2022-09-02T08:10:10;6.65;;;4.93;;
50355;SDS011;36264;51.296;-0.602;2022-09-02T08:12:37;7.40;;;5.35;;
50355;SDS011;36264;51.296;-0.602;2022-09-02T08:15:05;11.98;;;6.30;;
50355;SDS011;36264;51.296;-0.602;2022-09-02T08:17:31;12.48;;;5.65;;
50355;SDS011;36264;51.296;-0.602;2022-09-02T08:19:57;9.75;;;5.25;;
50355;SDS011;36264;51.296;-0.602;2022-09-02T08:22:22;9.38;;;4.43;;
50355;SDS011;36264;51.296;-0.602;2022-09-02T08:24:48;8.73;;;5.57;;
50355;SDS011;36264;51.296;-0.602;2022-09-02T08:27:13;7.88;;;5.97;;
50355;SDS011;36264;51.296;-0.602;2022-09-02T08:29:39;10.50;;;8.60;;
50355;SDS011;36264;51.296;-0.602;2022-09-02T08:32:05;11.60;;;8.10;;
50355;SDS011;36264;51.296;-0.602;2022-09-02T08:34:30;9.85;;;5.35;;
50355;SDS011;36264;51.296;-0.602;2022-09-02T08:36:56;14.45;;;9.43;;
50355;SDS011;36264;51.296;-0.602;2022-09-02T08:39:21;7.10;;;4.88;;
50355;SDS011;36264;51.296;-0.602;2022-09-02T08:41:53;17.10;;;12.88;;
50355;SDS011;36264;51.296;-0.602;2022-09-02T08:44:35;22.58;;;14.68;;
50355;SDS011;36264;51.296;-0.602;2022-09-02T08:47:02;14.27;;;10.68;;
50355;SDS011;36264;51.296;-0.602;2022-09-02T08:49:37;10.27;;;8.15;;
50355;SDS011;36264;51.296;-0.602;2022-09-02T08:52:07;11.60;;;8.50;;
50355;SDS011;36264;51.296;-0.602;2022-09-02T08:54:42;8.70;;;5.80;;
50355;SDS011;36264;51.296;-0.602;2022-09-02T08:57:17;7.38;;;4.57;;
50355;SDS011;36264;51.296;-0.602;2022-09-02T08:59:42;21.08;;;7.05;;
50355;SDS011;36264;51.296;-0.602;2022-09-02T09:18:46;9.63;;;4.05;;
50355;SDS011;36264;51.296;-0.602;2022-09-02T09:21:33;7.20;;;4.00;;
50355;SDS011;36264;51.296;-0.602;2022-09-02T09:24:02;9.45;;;5.32;;
50355;SDS011;36264;51.296;-0.602;2022-09-02T09:26:34;10.50;;;5.60;;
50355;SDS011;36264;51.296;-0.602;2022-09-02T09:29:04;12.38;;;5.10;;
50355;SDS011;36264;51.296;-0.602;2022-09-02T09:31:29;11.20;;;5.28;;
50355;SDS011;36264;51.296;-0.602;2022-09-02T09:34:03;6.40;;;3.70;;
50355;SDS011;36264;51.296;-0.602;2022-09-02T09:39:20;11.50;;;7.55;;
50355;SDS011;36264;51.296;-0.602;2022-09-02T09:42:07;10.23;;;5.68;;
50355;SDS011;36264;51.296;-0.602;2022-09-02T09:49:48;7.30;;;4.50;;
50355;SDS011;36264;51.296;-0.602;2022-09-02T09:52:28;11.23;;;5.00;;
50355;SDS011;36264;51.296;-0.602;2022-09-02T09:55:16;6.35;;;4.20;;
50355;SDS011;36264;51.296;-0.602;2022-09-02T09:57:44;9.00;;;4.93;;
50355;SDS011;36264;51.296;-0.602;2022-09-02T10:00:18;8.23;;;4.53;;
50355;SDS011;36264;51.296;-0.602;2022-09-02T10:02:48;9.93;;;4.82;;
50355;SDS011;36264;51.296;-0.602;2022-09-02T10:05:37;8.77;;;4.30;;
50355;SDS011;36264;51.296;-0.602;2022-09-02T10:08:04;6.72;;;3.80;;
50355;SDS011;36264;51.296;-0.602;2022-09-02T10:10:53;8.85;;;3.83;;
50355;SDS011;36264;51.296;-0.602;2022-09-02T10:18:49;4.63;;;2.67;;
50355;SDS011;36264;51.296;-0.602;2022-09-02T10:23:58;4.97;;;2.42;;
50355;SDS011;36264;51.296;-0.602;2022-09-02T10:26:45;7.93;;;3.05;;
50355;SDS011;36264;51.296;-0.602;2022-09-02T10:34:38;9.30;;;4.35;;
50355;SDS011;36264;51.296;-0.602;2022-09-02T10:37:15;14.87;;;5.20;;
50355;SDS011;36264;51.296;-0.602;2022-09-02T10:50:39;33.53;;;12.27;;
50355;SDS011;36264;51.296;-0.602;2022-09-02T10:55:58;29.73;;;11.40;;
50355;SDS011;36264;51.296;-0.602;2022-09-02T11:01:15;22.98;;;11.05;;
50355;SDS011;36264;51.296;-0.602;2022-09-02T11:03:47;24.38;;;10.60;;
50355;SDS011;36264;51.296;-0.602;2022-09-02T11:06:25;25.70;;;10.80;;
50355;SDS011;36264;51.296;-0.602;2022-09-02T11:09:11;19.30;;;9.35;;
50355;SDS011;36264;51.296;-0.602;2022-09-02T11:11:51;15.02;;;7.82;;
50355;SDS011;36264;51.296;-0.602;2022-09-02T11:17:26;14.70;;;6.93;;
50355;SDS011;36264;51.296;-0.602;2022-09-02T11:22:52;8.48;;;4.95;;
50355;SDS011;36264;51.296;-0.602;2022-09-02T11:25:24;11.13;;;5.38;;
50355;SDS011;36264;51.296;-0.602;2022-09-02T11:27:58;12.27;;;5.63;;
50355;SDS011;36264;51.296;-0.602;2022-09-02T11:30:26;9.85;;;5.05;;
50355;SDS011;36264;51.296;-0.602;2022-09-02T11:33:15;10.52;;;4.75;;
50355;SDS011;36264;51.296;-0.602;2022-09-02T11:35:44;9.50;;;4.55;;
50355;SDS011;36264;51.296;-0.602;2022-09-02T11:55:13;6.72;;;3.63;;
50355;SDS011;36264;51.296;-0.602;2022-09-02T11:57:49;10.60;;;4.82;;
50355;SDS011;36264;51.296;-0.602;2022-09-02T12:02:50;5.95;;;3.20;;
50355;SDS011;36264;51.296;-0.602;2022-09-02T12:08:10;6.07;;;3.17;;
50355;SDS011;36264;51.296;-0.602;2022-09-02T12:18:45;7.53;;;3.90;;
50355;SDS011;36264;51.296;-0.602;2022-09-02T12:21:34;10.35;;;4.75;;
50355;SDS011;36264;51.296;-0.602;2022-09-02T12:24:02;5.82;;;3.25;;
50355;SDS011;36264;51.296;-0.602;2022-09-02T12:29:10;5.00;;;2.97;;
50355;SDS011;36264;51.296;-0.602;2022-09-02T12:31:50;5.28;;;3.20;;
50355;SDS011;36264;51.296;-0.602;2022-09-02T12:36:51;9.57;;;4.10;;
50355;SDS011;36264;51.296;-0.602;2022-09-02T12:42:24;8.18;;;4.18;;
50355;SDS011;36264;51.296;-0.602;2022-09-02T12:47:52;6.68;;;3.60;;
50355;SDS011;36264;51.296;-0.602;2022-09-02T12:50:51;6.28;;;3.42;;
50355;SDS011;36264;51.296;-0.602;2022-09-02T12:56:01;9.70;;;3.60;;
50355;SDS011;36264;51.296;-0.602;2022-09-02T12:58:37;8.00;;;4.53;;
50355;SDS011;36264;51.296;-0.602;2022-09-02T13:01:28;7.20;;;3.55;;
50355;SDS011;36264;51.296;-0.602;2022-09-02T13:04:11;6.93;;;3.20;;
50355;SDS011;36264;51.296;-0.602;2022-09-02T13:07:00;8.43;;;3.15;;
50355;SDS011;36264;51.296;-0.602;2022-09-02T13:09:46;7.05;;;3.60;;
50355;SDS011;36264;51.296;-0.602;2022-09-02T13:12:49;5.50;;;3.45;;
50355;SDS011;36264;51.296;-0.602;2022-09-02T13:21:26;6.82;;;3.25;;
50355;SDS011;36264;51.296;-0.602;2022-09-02T13:24:12;6.05;;;3.00;;
50355;SDS011;36264;51.296;-0.602;2022-09-02T13:34:42;5.80;;;2.80;;
50355;SDS011;36264;51.296;-0.602;2022-09-02T13:39:53;6.68;;;2.70;;
50355;SDS011;36264;51.296;-0.602;2022-09-02T13:42:21;7.15;;;2.72;;
50355;SDS011;36264;51.296;-0.602;2022-09-02T13:44:48;7.00;;;2.72;;
50355;SDS011;36264;51.296;-0.602;2022-09-02T13:47:15;5.40;;;2.38;;
50355;SDS011;36264;51.296;-0.602;2022-09-02T13:49:46;8.50;;;3.05;;
50355;SDS011;36264;51.296;-0.602;2022-09-02T13:52:15;3.38;;;1.90;;
50355;SDS011;36264;51.296;-0.602;2022-09-02T13:54:44;9.18;;;3.00;;
50355;SDS011;36264;51.296;-0.602;2022-09-02T13:57:16;6.43;;;2.23;;
50355;SDS011;36264;51.296;-0.602;2022-09-02T13:59:46;6.22;;;2.33;;
50355;SDS011;36264;51.296;-0.602;2022-09-02T14:02:29;8.95;;;2.85;;
50355;SDS011;36264;51.296;-0.602;2022-09-02T14:07:42;4.05;;;2.10;;
50355;SDS011;36264;51.296;-0.602;2022-09-02T14:10:11;5.80;;;2.60;;
50355;SDS011;36264;51.296;-0.602;2022-09-02T14:12:39;6.47;;;2.60;;
50355;SDS011;36264;51.296;-0.602;2022-09-02T14:15:07;4.07;;;2.20;;
50355;SDS011;36264;51.296;-0.602;2022-09-02T14:17:34;3.70;;;1.95;;
50355;SDS011;36264;51.296;-0.602;2022-09-02T14:20:07;4.57;;;2.28;;
50355;SDS011;36264;51.296;-0.602;2022-09-02T14:22:38;5.07;;;2.13;;
50355;SDS011;36264;51.296;-0.602;2022-09-02T14:25:08;4.25;;;1.90;;
50355;SDS011;36264;51.296;-0.602;2022-09-02T14:27:42;5.93;;;2.40;;
50355;SDS011;36264;51.296;-0.602;2022-09-02T14:36:01;4.97;;;2.63;;
50355;SDS011;36264;51.296;-0.602;2022-09-02T14:38:28;3.72;;;2.20;;
50355;SDS011;36264;51.296;-0.602;2022-09-02T14:41:03;6.32;;;2.40;;
50355;SDS011;36264;51.296;-0.602;2022-09-02T14:43:39;4.60;;;2.20;;
50355;SDS011;36264;51.296;-0.602;2022-09-02T14:48:55;4.00;;;2.40;;
50355;SDS011;36264;51.296;-0.602;2022-09-02T14:51:22;6.43;;;3.17;;
50355;SDS011;36264;51.296;-0.602;2022-09-02T14:53:57;7.30;;;2.97;;
50355;SDS011;36264;51.296;-0.602;2022-09-02T14:56:42;5.32;;;2.30;;
50355;SDS011;36264;51.296;-0.602;2022-09-02T14:59:08;5.40;;;2.17;;
50355;SDS011;36264;51.296;-0.602;2022-09-02T15:01:41;4.18;;;2.15;;
50355;SDS011;36264;51.296;-0.602;2022-09-02T15:04:12;3.80;;;2.17;;
50355;SDS011;36264;51.296;-0.602;2022-09-02T15:06:38;5.20;;;2.40;;
50355;SDS011;36264;51.296;-0.602;2022-09-02T15:09:04;3.75;;;2.08;;
50355;SDS011;36264;51.296;-0.602;2022-09-02T15:11:29;4.60;;;2.40;;
50355;SDS011;36264;51.296;-0.602;2022-09-02T15:13:55;3.45;;;1.80;;
50355;SDS011;36264;51.296;-0.602;2022-09-02T15:16:20;3.92;;;2.00;;
50355;SDS011;36264;51.296;-0.602;2022-09-02T15:18:46;8.20;;;2.53;;
50355;SDS011;36264;51.296;-0.602;2022-09-02T15:21:11;5.15;;;2.60;;
50355;SDS011;36264;51.296;-0.602;2022-09-02T15:23:36;4.28;;;2.30;;
50355;SDS011;36264;51.296;-0.602;2022-09-02T15:26:04;4.05;;;2.10;;
50355;SDS011;36264;51.296;-0.602;2022-09-02T15:28:30;4.38;;;2.35;;
50355;SDS011;36264;51.296;-0.602;2022-09-02T15:30:59;4.38;;;2.42;;
50355;SDS011;36264;51.296;-0.602;2022-09-02T15:33:26;4.35;;;2.28;;
50355;SDS011;36264;51.296;-0.602;2022-09-02T15:35:52;10.10;;;3.65;;
50355;SDS011;36264;51.296;-0.602;2022-09-02T15:38:18;4.15;;;2.25;;
50355;SDS011;36264;51.296;-0.602;2022-09-02T15:40:43;3.50;;;2.00;;
50355;SDS011;36264;51.296;-0.602;2022-09-02T15:43:09;8.18;;;3.17;;
50355;SDS011;36264;51.296;-0.602;2022-09-02T15:45:43;4.15;;;2.15;;
50355;SDS011;36264;51.296;-0.602;2022-09-02T15:48:12;4.53;;;2.20;;
50355;SDS011;36264;51.296;-0.602;2022-09-02T15:50:38;3.80;;;2.30;;
50355;SDS011;36264;51.296;-0.602;2022-09-02T15:53:03;3.72;;;2.28;;
50355;SDS011;36264;51.296;-0.602;2022-09-02T15:55:32;3.97;;;2.38;;
50355;SDS011;36264;51.296;-0.602;2022-09-02T15:57:59;6.47;;;2.67;;
50355;SDS011;36264;51.296;-0.602;2022-09-02T16:00:26;4.72;;;2.30;;
50355;SDS011;36264;51.296;-0.602;2022-09-02T16:02:51;12.52;;;2.70;;
50355;SDS011;36264;51.296;-0.602;2022-09-02T16:05:17;7.47;;;2.42;;
50355;SDS011;36264;51.296;-0.602;2022-09-02T16:07:44;7.63;;;2.70;;
50355;SDS011;36264;51.296;-0.602;2022-09-02T16:10:09;6.15;;;2.80;;
50355;SDS011;36264;51.296;-0.602;2022-09-02T16:12:35;4.22;;;2.60;;
50355;SDS011;36264;51.296;-0.602;2022-09-02T16:15:01;6.00;;;2.70;;
50355;SDS011;36264;51.296;-0.602;2022-09-02T16:17:26;6.20;;;2.88;;
50355;SDS011;36264;51.296;-0.602;2022-09-02T16:19:51;6.43;;;2.80;;
50355;SDS011;36264;51.296;-0.602;2022-09-02T16:22:18;4.63;;;2.60;;
50355;SDS011;36264;51.296;-0.602;2022-09-02T16:24:43;6.05;;;3.00;;
50355;SDS011;36264;51.296;-0.602;2022-09-02T16:27:08;6.40;;;2.70;;
50355;SDS011;36264;51.296;-0.602;2022-09-02T16:29:34;4.78;;;2.40;;
50355;SDS011;36264;51.296;-0.602;2022-09-02T16:32:01;3.80;;;2.00;;
50355;SDS011;36264;51.296;-0.602;2022-09-02T16:34:27;4.72;;;2.45;;
50355;SDS011;36264;51.296;-0.602;2022-09-02T16:36:52;4.85;;;2.35;;
50355;SDS011;36264;51.296;-0.602;2022-09-02T16:39:18;5.20;;;2.60;;
50355;SDS011;36264;51.296;-0.602;2022-09-02T16:41:46;6.10;;;2.92;;
50355;SDS011;36264;51.296;-0.602;2022-09-02T16:44:14;3.60;;;2.30;;
50355;SDS011;36264;51.296;-0.602;2022-09-02T16:46:41;4.45;;;2.55;;
50355;SDS011;36264;51.296;-0.602;2022-09-02T16:49:09;4.18;;;2.45;;
50355;SDS011;36264;51.296;-0.602;2022-09-02T16:51:37;3.83;;;2.03;;
50355;SDS011;36264;51.296;-0.602;2022-09-02T16:54:04;3.75;;;2.30;;
50355;SDS011;36264;51.296;-0.602;2022-09-02T16:56:31;4.03;;;2.38;;
50355;SDS011;36264;51.296;-0.602;2022-09-02T16:59:00;4.13;;;2.33;;
50355;SDS011;36264;51.296;-0.602;2022-09-02T17:03:53;4.25;;;2.50;;